sensor_id;sensor_type;location;lat;lon;timestamp;temperature;humidity
45409;DHT22;31162;51.076;3.784;2023-04-24T00:00:16;11.10;99.90
45409;DHT22;31162;51.076;3.784;2023-04-24T00:02:43;11.00;99.90
45409;DHT22;31162;51.076;3.784;2023-04-24T00:05:13;11.10;99.90
45409;DHT22;31162;51.076;3.784;2023-04-24T00:07:43;11.00;99.90
45409;DHT22;31162;51.076;3.784;2023-04-24T00:10:09;10.90;99.90
45409;DHT22;31162;51.076;3.784;2023-04-24T00:12:35;11.00;99.90
45409;DHT22;31162;51.076;3.784;2023-04-24T00:15:01;11.00;99.90
45409;DHT22;31162;51.076;3.784;2023-04-24T00:17:27;11.10;99.90
45409;DHT22;31162;51.076;3.784;2023-04-24T00:19:52;11.00;99.90
45409;DHT22;31162;51.076;3.784;2023-04-24T00:22:24;11.00;99.90
45409;DHT22;31162;51.076;3.784;2023-04-24T00:24:50;11.10;99.90
45409;DHT22;31162;51.076;3.784;2023-04-24T00:27:16;11.30;99.90
45409;DHT22;31162;51.076;3.784;2023-04-24T00:29:41;11.20;99.90
45409;DHT22;31162;51.076;3.784;2023-04-24T00:32:07;11.20;99.90
45409;DHT22;31162;51.076;3.784;2023-04-24T00:34:33;11.10;99.90
45409;DHT22;31162;51.076;3.784;2023-04-24T00:36:58;11.00;99.90
45409;DHT22;31162;51.076;3.784;2023-04-24T00:39:24;11.00;99.90
45409;DHT22;31162;51.076;3.784;2023-04-24T00:41:51;10.90;99.90
45409;DHT22;31162;51.076;3.784;2023-04-24T00:44:17;10.80;99.90
45409;DHT22;31162;51.076;3.784;2023-04-24T00:46:42;10.80;99.90
45409;DHT22;31162;51.076;3.784;2023-04-24T00:49:08;10.80;99.90
45409;DHT22;31162;51.076;3.784;2023-04-24T00:51:34;10.70;99.90
45409;DHT22;31162;51.076;3.784;2023-04-24T00:54:00;10.70;99.90
45409;DHT22;31162;51.076;3.784;2023-04-24T00:56:28;10.70;99.90
45409;DHT22;31162;51.076;3.784;2023-04-24T00:58:54;10.60;99.90
45409;DHT22;31162;51.076;3.784;2023-04-24T01:01:21;10.60;99.90
45409;DHT22;31162;51.076;3.784;2023-04-24T01:03:51;10.70;99.90
45409;DHT22;31162;51.076;3.784;2023-04-24T01:06:19;10.60;99.90
45409;DHT22;31162;51.076;3.784;2023-04-24T01:08:46;10.60;99.90
45409;DHT22;31162;51.076;3.784;2023-04-24T01:11:13;10.60;99.90
45409;DHT22;31162;51.076;3.784;2023-04-24T01:13:39;10.60;99.90
45409;DHT22;31162;51.076;3.784;2023-04-24T01:16:05;10.60;99.90
45409;DHT22;31162;51.076;3.784;2023-04-24T01:18:31;10.60;99.90
45409;DHT22;31162;51.076;3.784;2023-04-24T01:20:58;10.60;99.90
45409;DHT22;31162;51.076;3.784;2023-04-24T01:23:24;10.70;99.90
45409;DHT22;31162;51.076;3.784;2023-04-24T01:25:50;10.70;99.90
45409;DHT22;31162;51.076;3.784;2023-04-24T01:28:17;10.60;99.90
45409;DHT22;31162;51.076;3.784;2023-04-24T01:30:43;10.50;99.90
45409;DHT22;31162;51.076;3.784;2023-04-24T01:33:09;10.40;99.90
45409;DHT22;31162;51.076;3.784;2023-04-24T01:35:36;10.30;99.90
45409;DHT22;31162;51.076;3.784;2023-04-24T01:38:03;10.20;99.90
45409;DHT22;31162;51.076;3.784;2023-04-24T01:40:28;10.20;99.90
45409;DHT22;31162;51.076;3.784;2023-04-24T01:42:54;10.10;99.90
45409;DHT22;31162;51.076;3.784;2023-04-24T01:45:20;10.20;99.90
45409;DHT22;31162;51.076;3.784;2023-04-24T01:47:45;10.10;99.90
45409;DHT22;31162;51.076;3.784;2023-04-24T01:50:14;10.10;99.90
45409;DHT22;31162;51.076;3.784;2023-04-24T01:52:40;10.10;99.90
45409;DHT22;31162;51.076;3.784;2023-04-24T01:55:06;10.10;99.90
45409;DHT22;31162;51.076;3.784;2023-04-24T01:57:33;10.20;99.90
45409;DHT22;31162;51.076;3.784;2023-04-24T01:59:59;10.20;99.90
45409;DHT22;31162;51.076;3.784;2023-04-24T02:02:25;10.20;99.90
45409;DHT22;31162;51.076;3.784;2023-04-24T02:04:53;10.10;99.90
45409;DHT22;31162;51.076;3.784;2023-04-24T02:07:19;10.10;99.90
45409;DHT22;31162;51.076;3.784;2023-04-24T02:09:45;10.00;99.90
45409;DHT22;31162;51.076;3.784;2023-04-24T02:12:11;9.90;99.90
45409;DHT22;31162;51.076;3.784;2023-04-24T02:14:37;9.90;99.90
45409;DHT22;31162;51.076;3.784;2023-04-24T02:17:03;9.90;99.90
45409;DHT22;31162;51.076;3.784;2023-04-24T02:19:28;9.80;99.90
45409;DHT22;31162;51.076;3.784;2023-04-24T02:21:54;9.90;99.90
45409;DHT22;31162;51.076;3.784;2023-04-24T02:24:20;10.00;99.90
45409;DHT22;31162;51.076;3.784;2023-04-24T02:26:46;9.90;99.90
45409;DHT22;31162;51.076;3.784;2023-04-24T02:29:11;9.90;99.90
45409;DHT22;31162;51.076;3.784;2023-04-24T02:31:37;9.90;99.90
45409;DHT22;31162;51.076;3.784;2023-04-24T02:34:06;9.90;99.90
45409;DHT22;31162;51.076;3.784;2023-04-24T02:36:31;10.00;99.90
45409;DHT22;31162;51.076;3.784;2023-04-24T02:38:57;10.00;99.90
45409;DHT22;31162;51.076;3.784;2023-04-24T02:41:23;10.10;99.90
45409;DHT22;31162;51.076;3.784;2023-04-24T02:43:48;10.20;99.90
45409;DHT22;31162;51.076;3.784;2023-04-24T02:46:14;10.20;99.90
45409;DHT22;31162;51.076;3.784;2023-04-24T02:48:40;10.30;99.90
45409;DHT22;31162;51.076;3.784;2023-04-24T02:51:05;10.20;99.90
45409;DHT22;31162;51.076;3.784;2023-04-24T02:53:32;10.20;99.90
45409;DHT22;31162;51.076;3.784;2023-04-24T02:55:58;10.20;99.90
45409;DHT22;31162;51.076;3.784;2023-04-24T02:58:24;10.20;99.90
45409;DHT22;31162;51.076;3.784;2023-04-24T03:00:54;10.30;99.90
45409;DHT22;31162;51.076;3.784;2023-04-24T03:03:21;10.20;99.90
45409;DHT22;31162;51.076;3.784;2023-04-24T03:05:47;10.20;99.90
45409;DHT22;31162;51.076;3.784;2023-04-24T03:08:12;10.10;99.90
45409;DHT22;31162;51.076;3.784;2023-04-24T03:10:40;10.10;99.90
45409;DHT22;31162;51.076;3.784;2023-04-24T03:13:05;10.10;99.90
45409;DHT22;31162;51.076;3.784;2023-04-24T03:15:31;10.20;99.90
45409;DHT22;31162;51.076;3.784;2023-04-24T03:17:57;10.20;99.90
45409;DHT22;31162;51.076;3.784;2023-04-24T03:20:22;10.20;99.90
45409;DHT22;31162;51.076;3.784;2023-04-24T03:22:48;10.10;99.90
45409;DHT22;31162;51.076;3.784;2023-04-24T03:25:14;10.00;99.90
45409;DHT22;31162;51.076;3.784;2023-04-24T03:27:39;10.10;99.90
45409;DHT22;31162;51.076;3.784;2023-04-24T03:30:07;10.10;99.90
45409;DHT22;31162;51.076;3.784;2023-04-24T03:32:35;9.90;99.90
45409;DHT22;31162;51.076;3.784;2023-04-24T03:35:01;10.00;99.90
45409;DHT22;31162;51.076;3.784;2023-04-24T03:37:26;9.90;99.90
45409;DHT22;31162;51.076;3.784;2023-04-24T03:39:52;9.90;99.90
45409;DHT22;31162;51.076;3.784;2023-04-24T03:42:20;10.00;99.90
45409;DHT22;31162;51.076;3.784;2023-04-24T03:44:46;10.10;99.90
45409;DHT22;31162;51.076;3.784;2023-04-24T03:47:12;10.00;99.90
45409;DHT22;31162;51.076;3.784;2023-04-24T03:49:37;9.80;99.90
45409;DHT22;31162;51.076;3.784;2023-04-24T03:52:03;9.80;99.90
45409;DHT22;31162;51.076;3.784;2023-04-24T03:54:28;9.80;99.90
45409;DHT22;31162;51.076;3.784;2023-04-24T03:56:54;9.90;99.90
45409;DHT22;31162;51.076;3.784;2023-04-24T03:59:20;9.90;99.90
45409;DHT22;31162;51.076;3.784;2023-04-24T04:01:45;9.90;99.90
45409;DHT22;31162;51.076;3.784;2023-04-24T04:04:14;9.90;99.90
45409;DHT22;31162;51.076;3.784;2023-04-24T04:06:39;9.90;99.90
45409;DHT22;31162;51.076;3.784;2023-04-24T04:09:08;9.90;99.90
45409;DHT22;31162;51.076;3.784;2023-04-24T04:11:34;9.80;99.90
45409;DHT22;31162;51.076;3.784;2023-04-24T04:14:00;9.80;99.90
45409;DHT22;31162;51.076;3.784;2023-04-24T04:16:26;9.80;99.90
45409;DHT22;31162;51.076;3.784;2023-04-24T04:18:52;9.80;99.90
45409;DHT22;31162;51.076;3.784;2023-04-24T04:21:17;9.80;99.90
45409;DHT22;31162;51.076;3.784;2023-04-24T04:23:43;9.70;99.90
45409;DHT22;31162;51.076;3.784;2023-04-24T04:26:09;9.70;99.90
45409;DHT22;31162;51.076;3.784;2023-04-24T04:28:34;9.70;99.90
45409;DHT22;31162;51.076;3.784;2023-04-24T04:31:00;9.70;99.90
45409;DHT22;31162;51.076;3.784;2023-04-24T04:33:26;9.70;99.90
45409;DHT22;31162;51.076;3.784;2023-04-24T04:35:52;9.70;99.90
45409;DHT22;31162;51.076;3.784;2023-04-24T04:38:21;9.70;99.90
45409;DHT22;31162;51.076;3.784;2023-04-24T04:40:46;9.50;99.90
45409;DHT22;31162;51.076;3.784;2023-04-24T04:43:12;9.50;99.90
45409;DHT22;31162;51.076;3.784;2023-04-24T04:45:41;9.50;99.90
45409;DHT22;31162;51.076;3.784;2023-04-24T04:48:09;9.60;99.90
45409;DHT22;31162;51.076;3.784;2023-04-24T04:50:37;9.70;99.90
45409;DHT22;31162;51.076;3.784;2023-04-24T04:53:05;9.60;99.90
45409;DHT22;31162;51.076;3.784;2023-04-24T04:55:34;9.70;99.90
45409;DHT22;31162;51.076;3.784;2023-04-24T04:58:00;9.70;99.90
45409;DHT22;31162;51.076;3.784;2023-04-24T05:00:26;9.60;99.90
45409;DHT22;31162;51.076;3.784;2023-04-24T05:02:52;9.60;99.90
45409;DHT22;31162;51.076;3.784;2023-04-24T05:05:18;9.60;99.90
45409;DHT22;31162;51.076;3.784;2023-04-24T05:07:44;9.50;99.90
45409;DHT22;31162;51.076;3.784;2023-04-24T05:10:10;9.60;99.90
45409;DHT22;31162;51.076;3.784;2023-04-24T05:12:36;9.60;99.90
45409;DHT22;31162;51.076;3.784;2023-04-24T05:15:02;9.60;99.90
45409;DHT22;31162;51.076;3.784;2023-04-24T05:17:30;9.60;99.90
45409;DHT22;31162;51.076;3.784;2023-04-24T05:19:56;9.60;99.90
45409;DHT22;31162;51.076;3.784;2023-04-24T05:22:22;9.70;99.90
45409;DHT22;31162;51.076;3.784;2023-04-24T05:24:49;9.70;99.90
45409;DHT22;31162;51.076;3.784;2023-04-24T05:27:15;9.70;99.90
45409;DHT22;31162;51.076;3.784;2023-04-24T05:29:40;9.60;99.90
45409;DHT22;31162;51.076;3.784;2023-04-24T05:32:06;9.70;99.90
45409;DHT22;31162;51.076;3.784;2023-04-24T05:34:32;9.70;99.90
45409;DHT22;31162;51.076;3.784;2023-04-24T05:36:58;9.70;99.90
45409;DHT22;31162;51.076;3.784;2023-04-24T05:39:24;9.70;99.90
45409;DHT22;31162;51.076;3.784;2023-04-24T05:41:50;9.70;99.90
45409;DHT22;31162;51.076;3.784;2023-04-24T05:44:16;9.80;99.90
45409;DHT22;31162;51.076;3.784;2023-04-24T05:46:42;9.90;99.90
45409;DHT22;31162;51.076;3.784;2023-04-24T05:49:08;9.90;99.90
45409;DHT22;31162;51.076;3.784;2023-04-24T05:51:33;9.90;99.90
45409;DHT22;31162;51.076;3.784;2023-04-24T05:53:59;9.90;99.90
45409;DHT22;31162;51.076;3.784;2023-04-24T05:56:25;9.90;99.90
45409;DHT22;31162;51.076;3.784;2023-04-24T05:58:51;10.00;99.90
45409;DHT22;31162;51.076;3.784;2023-04-24T06:01:16;10.10;99.90
45409;DHT22;31162;51.076;3.784;2023-04-24T06:03:42;10.10;99.90
45409;DHT22;31162;51.076;3.784;2023-04-24T06:06:08;10.10;99.90
45409;DHT22;31162;51.076;3.784;2023-04-24T06:08:35;10.10;99.90
45409;DHT22;31162;51.076;3.784;2023-04-24T06:11:01;10.10;99.90
45409;DHT22;31162;51.076;3.784;2023-04-24T06:13:26;10.20;99.90
45409;DHT22;31162;51.076;3.784;2023-04-24T06:15:55;10.20;99.90
45409;DHT22;31162;51.076;3.784;2023-04-24T06:18:20;10.20;99.90
45409;DHT22;31162;51.076;3.784;2023-04-24T06:20:49;10.20;99.90
45409;DHT22;31162;51.076;3.784;2023-04-24T06:23:15;10.30;99.90
45409;DHT22;31162;51.076;3.784;2023-04-24T06:25:40;10.40;99.90
45409;DHT22;31162;51.076;3.784;2023-04-24T06:28:06;10.40;99.90
45409;DHT22;31162;51.076;3.784;2023-04-24T06:30:32;10.40;99.90
45409;DHT22;31162;51.076;3.784;2023-04-24T06:32:57;10.30;99.90
45409;DHT22;31162;51.076;3.784;2023-04-24T06:35:23;10.30;99.90
45409;DHT22;31162;51.076;3.784;2023-04-24T06:37:49;10.40;99.90
45409;DHT22;31162;51.076;3.784;2023-04-24T06:40:15;10.80;99.90
45409;DHT22;31162;51.076;3.784;2023-04-24T06:42:40;11.20;99.90
45409;DHT22;31162;51.076;3.784;2023-04-24T06:45:06;11.50;99.90
45409;DHT22;31162;51.076;3.784;2023-04-24T06:47:32;11.70;99.90
45409;DHT22;31162;51.076;3.784;2023-04-24T06:49:58;11.70;99.90
45409;DHT22;31162;51.076;3.784;2023-04-24T06:52:24;12.00;99.90
45409;DHT22;31162;51.076;3.784;2023-04-24T06:54:50;12.10;99.90
45409;DHT22;31162;51.076;3.784;2023-04-24T06:57:16;12.00;99.90
45409;DHT22;31162;51.076;3.784;2023-04-24T06:59:44;12.30;99.90
45409;DHT22;31162;51.076;3.784;2023-04-24T07:02:09;12.50;99.90
45409;DHT22;31162;51.076;3.784;2023-04-24T07:04:35;12.70;99.90
45409;DHT22;31162;51.076;3.784;2023-04-24T07:07:02;12.90;99.90
45409;DHT22;31162;51.076;3.784;2023-04-24T07:09:28;13.00;99.90
45409;DHT22;31162;51.076;3.784;2023-04-24T07:11:54;12.90;99.90
45409;DHT22;31162;51.076;3.784;2023-04-24T07:14:22;12.70;99.90
45409;DHT22;31162;51.076;3.784;2023-04-24T07:16:48;12.50;99.90
45409;DHT22;31162;51.076;3.784;2023-04-24T07:19:14;12.30;99.90
45409;DHT22;31162;51.076;3.784;2023-04-24T07:21:40;12.20;99.90
45409;DHT22;31162;51.076;3.784;2023-04-24T07:24:05;12.40;99.90
45409;DHT22;31162;51.076;3.784;2023-04-24T07:26:34;12.50;99.90
45409;DHT22;31162;51.076;3.784;2023-04-24T07:29:00;13.40;99.90
45409;DHT22;31162;51.076;3.784;2023-04-24T07:31:26;14.60;99.90
45409;DHT22;31162;51.076;3.784;2023-04-24T07:33:52;14.90;99.90
45409;DHT22;31162;51.076;3.784;2023-04-24T07:36:17;15.40;99.90
45409;DHT22;31162;51.076;3.784;2023-04-24T07:38:45;15.20;99.90
45409;DHT22;31162;51.076;3.784;2023-04-24T07:41:12;15.10;99.90
45409;DHT22;31162;51.076;3.784;2023-04-24T07:43:37;15.00;99.90
45409;DHT22;31162;51.076;3.784;2023-04-24T07:46:03;14.80;99.90
45409;DHT22;31162;51.076;3.784;2023-04-24T07:48:29;14.40;99.90
45409;DHT22;31162;51.076;3.784;2023-04-24T07:50:54;14.10;99.90
45409;DHT22;31162;51.076;3.784;2023-04-24T07:53:20;13.70;99.90
45409;DHT22;31162;51.076;3.784;2023-04-24T07:55:48;13.60;99.90
45409;DHT22;31162;51.076;3.784;2023-04-24T07:58:14;13.30;99.90
45409;DHT22;31162;51.076;3.784;2023-04-24T08:00:40;13.20;99.90
45409;DHT22;31162;51.076;3.784;2023-04-24T08:03:06;13.00;99.90
45409;DHT22;31162;51.076;3.784;2023-04-24T08:05:31;12.90;99.90
45409;DHT22;31162;51.076;3.784;2023-04-24T08:07:58;13.20;99.90
45409;DHT22;31162;51.076;3.784;2023-04-24T08:10:24;13.70;99.90
45409;DHT22;31162;51.076;3.784;2023-04-24T08:12:50;15.80;99.90
45409;DHT22;31162;51.076;3.784;2023-04-24T08:15:16;18.70;99.90
45409;DHT22;31162;51.076;3.784;2023-04-24T08:17:42;21.50;99.90
45409;DHT22;31162;51.076;3.784;2023-04-24T08:20:10;23.00;99.90
45409;DHT22;31162;51.076;3.784;2023-04-24T08:22:39;24.80;99.90
45409;DHT22;31162;51.076;3.784;2023-04-24T08:25:06;26.60;96.60
45409;DHT22;31162;51.076;3.784;2023-04-24T08:27:32;24.70;95.20
45409;DHT22;31162;51.076;3.784;2023-04-24T08:29:57;22.00;98.30
45409;DHT22;31162;51.076;3.784;2023-04-24T08:32:24;19.60;99.90
45409;DHT22;31162;51.076;3.784;2023-04-24T08:34:50;18.30;99.90
45409;DHT22;31162;51.076;3.784;2023-04-24T08:37:18;17.40;99.90
45409;DHT22;31162;51.076;3.784;2023-04-24T08:39:43;17.50;99.90
45409;DHT22;31162;51.076;3.784;2023-04-24T08:42:09;18.40;99.90
45409;DHT22;31162;51.076;3.784;2023-04-24T08:44:36;18.40;99.90
45409;DHT22;31162;51.076;3.784;2023-04-24T08:47:03;18.20;99.90
45409;DHT22;31162;51.076;3.784;2023-04-24T08:49:29;17.30;99.90
45409;DHT22;31162;51.076;3.784;2023-04-24T08:51:55;16.90;99.90
45409;DHT22;31162;51.076;3.784;2023-04-24T08:54:21;17.50;99.90
45409;DHT22;31162;51.076;3.784;2023-04-24T08:56:48;18.60;99.90
45409;DHT22;31162;51.076;3.784;2023-04-24T08:59:15;18.00;99.90
45409;DHT22;31162;51.076;3.784;2023-04-24T09:01:41;17.80;99.90
45409;DHT22;31162;51.076;3.784;2023-04-24T09:04:09;17.60;99.90
45409;DHT22;31162;51.076;3.784;2023-04-24T09:06:41;17.20;99.90
45409;DHT22;31162;51.076;3.784;2023-04-24T09:09:08;16.70;99.90
45409;DHT22;31162;51.076;3.784;2023-04-24T09:11:37;16.20;99.90
45409;DHT22;31162;51.076;3.784;2023-04-24T09:14:06;15.80;99.90
45409;DHT22;31162;51.076;3.784;2023-04-24T09:16:32;15.50;99.90
45409;DHT22;31162;51.076;3.784;2023-04-24T09:18:58;15.00;99.90
45409;DHT22;31162;51.076;3.784;2023-04-24T09:21:24;14.90;99.90
45409;DHT22;31162;51.076;3.784;2023-04-24T09:24:08;14.80;99.90
45409;DHT22;31162;51.076;3.784;2023-04-24T09:26:39;15.20;99.90
45409;DHT22;31162;51.076;3.784;2023-04-24T09:29:05;15.30;99.90
45409;DHT22;31162;51.076;3.784;2023-04-24T09:31:32;15.10;99.90
45409;DHT22;31162;51.076;3.784;2023-04-24T09:34:03;15.10;99.90
45409;DHT22;31162;51.076;3.784;2023-04-24T09:36:32;15.70;99.90
45409;DHT22;31162;51.076;3.784;2023-04-24T09:39:02;16.30;99.90
45409;DHT22;31162;51.076;3.784;2023-04-24T09:41:28;17.40;99.90
45409;DHT22;31162;51.076;3.784;2023-04-24T09:43:55;18.80;99.90
45409;DHT22;31162;51.076;3.784;2023-04-24T09:46:28;20.10;99.90
45409;DHT22;31162;51.076;3.784;2023-04-24T09:48:54;20.40;99.90
45409;DHT22;31162;51.076;3.784;2023-04-24T09:51:33;20.10;99.90
45409;DHT22;31162;51.076;3.784;2023-04-24T09:53:59;19.00;99.90
45409;DHT22;31162;51.076;3.784;2023-04-24T09:56:25;18.80;99.90
45409;DHT22;31162;51.076;3.784;2023-04-24T09:58:51;18.30;99.90
45409;DHT22;31162;51.076;3.784;2023-04-24T10:01:30;18.00;99.90
45409;DHT22;31162;51.076;3.784;2023-04-24T10:03:56;18.20;99.90
45409;DHT22;31162;51.076;3.784;2023-04-24T10:06:21;19.10;99.90
45409;DHT22;31162;51.076;3.784;2023-04-24T10:08:48;20.40;99.90
45409;DHT22;31162;51.076;3.784;2023-04-24T10:11:16;22.10;97.80
45409;DHT22;31162;51.076;3.784;2023-04-24T10:13:43;22.80;96.30
45409;DHT22;31162;51.076;3.784;2023-04-24T10:16:08;22.30;95.80
45409;DHT22;31162;51.076;3.784;2023-04-24T10:18:35;21.70;95.40
45409;DHT22;31162;51.076;3.784;2023-04-24T10:21:01;21.30;96.10
45409;DHT22;31162;51.076;3.784;2023-04-24T10:23:28;21.00;97.30
45409;DHT22;31162;51.076;3.784;2023-04-24T10:25:55;20.60;97.30
45409;DHT22;31162;51.076;3.784;2023-04-24T10:28:22;20.20;96.70
45409;DHT22;31162;51.076;3.784;2023-04-24T10:30:49;20.30;96.80
45409;DHT22;31162;51.076;3.784;2023-04-24T10:33:17;19.80;97.10
45409;DHT22;31162;51.076;3.784;2023-04-24T10:35:45;19.40;97.00
45409;DHT22;31162;51.076;3.784;2023-04-24T10:38:16;19.30;97.80
45409;DHT22;31162;51.076;3.784;2023-04-24T10:40:43;19.30;98.00
45409;DHT22;31162;51.076;3.784;2023-04-24T10:43:09;19.60;97.20
45409;DHT22;31162;51.076;3.784;2023-04-24T10:45:37;19.50;96.10
45409;DHT22;31162;51.076;3.784;2023-04-24T10:48:08;19.70;97.20
45409;DHT22;31162;51.076;3.784;2023-04-24T10:53:14;20.00;96.80
45409;DHT22;31162;51.076;3.784;2023-04-24T10:55:45;19.30;96.60
45409;DHT22;31162;51.076;3.784;2023-04-24T10:58:11;19.30;97.20
45409;DHT22;31162;51.076;3.784;2023-04-24T11:00:39;20.60;95.50
45409;DHT22;31162;51.076;3.784;2023-04-24T11:03:06;20.70;95.50
45409;DHT22;31162;51.076;3.784;2023-04-24T11:08:29;21.20;94.90
45409;DHT22;31162;51.076;3.784;2023-04-24T11:11:02;21.00;94.50
45409;DHT22;31162;51.076;3.784;2023-04-24T11:18:56;19.60;95.30
45409;DHT22;31162;51.076;3.784;2023-04-24T11:21:25;18.90;96.10
45409;DHT22;31162;51.076;3.784;2023-04-24T11:23:51;19.80;95.60
45409;DHT22;31162;51.076;3.784;2023-04-24T11:26:22;19.70;95.20
45409;DHT22;31162;51.076;3.784;2023-04-24T11:28:50;20.00;95.80
45409;DHT22;31162;51.076;3.784;2023-04-24T11:31:41;19.50;96.10
45409;DHT22;31162;51.076;3.784;2023-04-24T11:34:14;19.40;96.80
45409;DHT22;31162;51.076;3.784;2023-04-24T11:36:47;19.60;95.50
45409;DHT22;31162;51.076;3.784;2023-04-24T11:39:14;19.70;95.90
45409;DHT22;31162;51.076;3.784;2023-04-24T11:41:41;20.90;95.20
45409;DHT22;31162;51.076;3.784;2023-04-24T11:44:08;22.30;92.80
45409;DHT22;31162;51.076;3.784;2023-04-24T11:46:34;23.20;91.60
45409;DHT22;31162;51.076;3.784;2023-04-24T11:48:59;22.30;92.00
45409;DHT22;31162;51.076;3.784;2023-04-24T11:51:27;21.90;93.10
45409;DHT22;31162;51.076;3.784;2023-04-24T11:53:56;21.10;92.70
45409;DHT22;31162;51.076;3.784;2023-04-24T11:56:23;20.50;94.10
45409;DHT22;31162;51.076;3.784;2023-04-24T11:58:51;20.50;94.30
45409;DHT22;31162;51.076;3.784;2023-04-24T12:01:17;20.40;94.50
45409;DHT22;31162;51.076;3.784;2023-04-24T12:03:47;20.10;95.00
45409;DHT22;31162;51.076;3.784;2023-04-24T12:06:13;19.80;95.50
45409;DHT22;31162;51.076;3.784;2023-04-24T12:08:39;20.80;94.70
45409;DHT22;31162;51.076;3.784;2023-04-24T12:11:06;21.50;92.50
45409;DHT22;31162;51.076;3.784;2023-04-24T12:13:33;21.70;93.70
45409;DHT22;31162;51.076;3.784;2023-04-24T12:16:03;21.60;92.80
45409;DHT22;31162;51.076;3.784;2023-04-24T12:18:29;20.90;93.00
45409;DHT22;31162;51.076;3.784;2023-04-24T12:20:55;20.30;92.90
45409;DHT22;31162;51.076;3.784;2023-04-24T12:23:34;20.10;93.70
45409;DHT22;31162;51.076;3.784;2023-04-24T12:26:04;20.40;94.40
45409;DHT22;31162;51.076;3.784;2023-04-24T12:28:37;20.30;93.70
45409;DHT22;31162;51.076;3.784;2023-04-24T12:31:03;20.00;93.20
45409;DHT22;31162;51.076;3.784;2023-04-24T12:33:33;20.10;92.30
45409;DHT22;31162;51.076;3.784;2023-04-24T12:36:00;20.10;92.50
45409;DHT22;31162;51.076;3.784;2023-04-24T12:38:27;20.10;93.40
45409;DHT22;31162;51.076;3.784;2023-04-24T12:41:05;19.70;94.70
45409;DHT22;31162;51.076;3.784;2023-04-24T12:43:31;19.40;93.70
45409;DHT22;31162;51.076;3.784;2023-04-24T12:45:56;18.90;93.00
45409;DHT22;31162;51.076;3.784;2023-04-24T12:48:22;18.80;95.20
45409;DHT22;31162;51.076;3.784;2023-04-24T12:50:48;18.70;95.30
45409;DHT22;31162;51.076;3.784;2023-04-24T12:53:14;18.90;95.00
45409;DHT22;31162;51.076;3.784;2023-04-24T12:55:41;19.00;94.50
45409;DHT22;31162;51.076;3.784;2023-04-24T12:58:07;19.00;93.40
45409;DHT22;31162;51.076;3.784;2023-04-24T13:00:33;18.60;94.30
45409;DHT22;31162;51.076;3.784;2023-04-24T13:02:59;18.30;95.40
45409;DHT22;31162;51.076;3.784;2023-04-24T13:05:24;18.40;95.20
45409;DHT22;31162;51.076;3.784;2023-04-24T13:07:50;18.10;94.50
45409;DHT22;31162;51.076;3.784;2023-04-24T13:10:17;17.70;96.40
45409;DHT22;31162;51.076;3.784;2023-04-24T13:12:45;17.80;97.30
45409;DHT22;31162;51.076;3.784;2023-04-24T13:15:12;17.30;97.60
45409;DHT22;31162;51.076;3.784;2023-04-24T13:17:37;17.20;97.30
45409;DHT22;31162;51.076;3.784;2023-04-24T13:20:04;17.50;96.70
45409;DHT22;31162;51.076;3.784;2023-04-24T13:22:30;18.00;96.40
45409;DHT22;31162;51.076;3.784;2023-04-24T13:24:58;17.90;96.50
45409;DHT22;31162;51.076;3.784;2023-04-24T13:27:24;17.60;96.60
45409;DHT22;31162;51.076;3.784;2023-04-24T13:29:50;17.60;97.30
45409;DHT22;31162;51.076;3.784;2023-04-24T13:32:17;17.20;96.60
45409;DHT22;31162;51.076;3.784;2023-04-24T13:34:43;16.80;97.10
45409;DHT22;31162;51.076;3.784;2023-04-24T13:37:09;16.60;97.50
45409;DHT22;31162;51.076;3.784;2023-04-24T13:39:37;16.40;97.00
45409;DHT22;31162;51.076;3.784;2023-04-24T13:42:03;16.00;97.80
45409;DHT22;31162;51.076;3.784;2023-04-24T13:44:29;15.90;98.80
45409;DHT22;31162;51.076;3.784;2023-04-24T13:46:55;16.00;98.90
45409;DHT22;31162;51.076;3.784;2023-04-24T13:49:22;15.90;98.70
45409;DHT22;31162;51.076;3.784;2023-04-24T13:51:50;15.90;99.20
45409;DHT22;31162;51.076;3.784;2023-04-24T13:54:16;16.20;99.80
45409;DHT22;31162;51.076;3.784;2023-04-24T13:56:44;16.50;97.50
45409;DHT22;31162;51.076;3.784;2023-04-24T13:59:14;16.70;97.80
45409;DHT22;31162;51.076;3.784;2023-04-24T14:01:40;16.50;98.60
45409;DHT22;31162;51.076;3.784;2023-04-24T14:04:06;16.30;98.10
45409;DHT22;31162;51.076;3.784;2023-04-24T14:06:32;16.10;98.00
45409;DHT22;31162;51.076;3.784;2023-04-24T14:08:57;16.10;97.80
45409;DHT22;31162;51.076;3.784;2023-04-24T14:11:23;16.10;98.40
45409;DHT22;31162;51.076;3.784;2023-04-24T14:13:49;16.30;98.40
45409;DHT22;31162;51.076;3.784;2023-04-24T14:16:15;16.70;97.70
45409;DHT22;31162;51.076;3.784;2023-04-24T14:18:41;17.10;97.30
45409;DHT22;31162;51.076;3.784;2023-04-24T14:21:06;17.30;97.30
45409;DHT22;31162;51.076;3.784;2023-04-24T14:23:32;17.30;96.90
45409;DHT22;31162;51.076;3.784;2023-04-24T14:25:58;16.90;97.20
45409;DHT22;31162;51.076;3.784;2023-04-24T14:28:25;16.70;97.10
45409;DHT22;31162;51.076;3.784;2023-04-24T14:30:53;16.70;97.10
45409;DHT22;31162;51.076;3.784;2023-04-24T14:33:19;16.70;97.50
45409;DHT22;31162;51.076;3.784;2023-04-24T14:35:45;16.90;97.40
45409;DHT22;31162;51.076;3.784;2023-04-24T14:38:11;17.10;96.20
45409;DHT22;31162;51.076;3.784;2023-04-24T14:40:37;17.20;96.90
45409;DHT22;31162;51.076;3.784;2023-04-24T14:43:03;17.30;97.10
45409;DHT22;31162;51.076;3.784;2023-04-24T14:45:29;17.70;96.40
45409;DHT22;31162;51.076;3.784;2023-04-24T14:47:55;17.80;96.40
45409;DHT22;31162;51.076;3.784;2023-04-24T14:50:23;17.40;96.80
45409;DHT22;31162;51.076;3.784;2023-04-24T14:52:49;17.30;96.50
45409;DHT22;31162;51.076;3.784;2023-04-24T14:55:15;17.10;97.30
45409;DHT22;31162;51.076;3.784;2023-04-24T14:57:40;16.90;97.50
45409;DHT22;31162;51.076;3.784;2023-04-24T15:00:07;16.80;98.00
45409;DHT22;31162;51.076;3.784;2023-04-24T15:02:35;17.00;97.40
45409;DHT22;31162;51.076;3.784;2023-04-24T15:05:05;17.20;97.80
45409;DHT22;31162;51.076;3.784;2023-04-24T15:07:31;17.60;97.30
45409;DHT22;31162;51.076;3.784;2023-04-24T15:09:57;17.50;96.80
45409;DHT22;31162;51.076;3.784;2023-04-24T15:12:23;17.50;97.30
45409;DHT22;31162;51.076;3.784;2023-04-24T15:14:48;17.30;96.30
45409;DHT22;31162;51.076;3.784;2023-04-24T15:17:14;17.30;95.20
45409;DHT22;31162;51.076;3.784;2023-04-24T15:19:40;17.00;96.20
45409;DHT22;31162;51.076;3.784;2023-04-24T15:22:05;17.00;96.20
45409;DHT22;31162;51.076;3.784;2023-04-24T15:24:31;17.20;95.80
45409;DHT22;31162;51.076;3.784;2023-04-24T15:26:56;17.30;95.90
45409;DHT22;31162;51.076;3.784;2023-04-24T15:29:24;17.40;96.10
45409;DHT22;31162;51.076;3.784;2023-04-24T15:31:50;17.50;96.40
45409;DHT22;31162;51.076;3.784;2023-04-24T15:34:15;17.60;96.50
45409;DHT22;31162;51.076;3.784;2023-04-24T15:36:41;17.50;96.40
45409;DHT22;31162;51.076;3.784;2023-04-24T15:39:07;17.60;96.40